createdAt,value
2018-07-23T02:33:05.503Z,39.40
2018-07-23T02:35:36.381Z,39.95
2018-07-23T02:38:08.328Z,40.17
2018-07-23T02:40:38.820Z,37.78
2018-07-23T02:43:09.468Z,36.83
2018-07-23T02:45:40.044Z,37.45
2018-07-23T02:48:19.229Z,38.30
2018-07-23T02:51:11.481Z,40.63
2018-07-23T03:02:31.617Z,36.08
2018-07-23T03:05:24.462Z,36.93
2018-07-23T03:08:10.449Z,41.05
2018-07-23T03:11:03.330Z,39.30
2018-07-23T03:13:49.116Z,33.67
2018-07-23T03:16:36.312Z,33.80
2018-07-23T03:19:20.154Z,37.38
2018-07-23T03:22:01.797Z,31.50
2018-07-23T03:24:53.722Z,43.10
2018-07-23T03:27:43.650Z,32.33
2018-07-23T03:30:36.732Z,35.03
2018-07-23T03:33:32.046Z,37.67
2018-07-23T03:39:17.856Z,33.85
2018-07-23T03:42:15.030Z,34.98
2018-07-23T03:45:08.005Z,37.00
2018-07-23T03:48:02.982Z,36.08
2018-07-23T03:50:57.796Z,34.03
2018-07-23T03:56:59.592Z,33.63
2018-07-23T03:59:52.008Z,44.45
2018-07-23T04:02:38.743Z,35.15
2018-07-23T04:05:38.541Z,37.35
2018-07-23T04:08:32.626Z,35.35
2018-07-23T04:17:40.038Z,28.45
2018-07-23T04:25:22.889Z,51.18
2018-07-23T04:28:26.673Z,37.80
2018-07-23T04:31:15.914Z,34.75
2018-07-23T04:34:00.876Z,38.70
2018-07-23T04:36:57.482Z,33.42
2018-07-23T04:39:50.168Z,35.75
2018-07-23T04:50:41.495Z,32.75
2018-07-23T04:56:30.910Z,31.60
2018-07-23T05:02:34.403Z,35.10
2018-07-23T05:08:22.572Z,30.97
2018-07-23T05:14:30.379Z,34.48
2018-07-23T05:17:28.964Z,31.50
2018-07-23T05:20:18.613Z,34.48
2018-07-23T05:23:08.520Z,32.85
2018-07-23T05:26:00.344Z,31.27
2018-07-23T05:28:54.917Z,35.13
2018-07-23T05:37:50.209Z,32.15
2018-07-23T05:52:23.027Z,40.58
2018-07-23T05:55:12.414Z,39.80
2018-07-23T06:01:11.465Z,38.23
2018-07-23T06:09:49.437Z,40.03
2018-07-23T06:12:40.296Z,41.88
2018-07-23T06:15:26.284Z,43.60
2018-07-23T06:18:09.664Z,43.98
2018-07-23T06:20:54.684Z,43.55
2018-07-23T06:23:38.460Z,40.65
2018-07-23T06:32:46.341Z,46.48
2018-07-23T06:35:44.922Z,40.98
2018-07-23T06:38:29.520Z,35.45
2018-07-23T06:41:21.481Z,40.00
2018-07-23T06:44:16.419Z,39.95
2018-07-23T06:50:20.468Z,40.15
2018-07-23T06:53:09.539Z,39.58
2018-07-23T06:56:03.919Z,37.75
2018-07-23T06:58:58.471Z,43.15
2018-07-23T07:01:47.828Z,40.43
2018-07-23T07:13:08.538Z,35.63
2018-07-23T07:16:01.139Z,38.45
2018-07-23T07:21:38.381Z,37.60
2018-07-23T07:24:41.016Z,39.40
2018-07-23T07:27:24.686Z,35.60
2018-07-23T07:33:05.374Z,37.70
2018-07-23T07:35:55.914Z,40.45
2018-07-23T07:41:59.228Z,35.70
2018-07-23T07:44:50.337Z,39.27
2018-07-23T07:47:24.689Z,40.88
2018-07-23T07:53:02.681Z,37.75
2018-07-23T07:56:21.565Z,36.58
2018-07-23T08:02:38.630Z,36.73
2018-07-23T08:05:35.424Z,33.63
2018-07-23T08:08:37.854Z,36.58
2018-07-23T08:14:51.578Z,31.93
2018-07-23T08:17:46.151Z,30.15
2018-07-23T08:20:54.257Z,32.17
2018-07-23T08:24:15.276Z,33.20
2018-07-23T08:27:08.618Z,32.50
2018-07-23T08:30:07.421Z,33.73
2018-07-23T08:33:05.929Z,33.88
2018-07-23T08:36:07.563Z,37.20
2018-07-23T08:39:05.038Z,35.52
2018-07-23T08:42:14.809Z,33.30
2018-07-23T08:55:35.603Z,32.15
2018-07-23T08:58:31.067Z,32.93
2018-07-23T09:01:23.697Z,31.65
2018-07-23T09:04:11.375Z,32.95
2018-07-23T09:06:54.797Z,32.20
2018-07-23T09:13:06.336Z,34.33
2018-07-23T09:16:05.261Z,28.05
2018-07-23T09:19:03.175Z,26.80
2018-07-23T09:25:02.993Z,30.27
2018-07-23T09:28:12.608Z,25.35
2018-07-23T09:31:08.248Z,27.02
2018-07-23T09:37:18.065Z,26.33
2018-07-23T09:40:14.521Z,24.57
2018-07-23T09:43:03.105Z,24.65
2018-07-23T09:45:56.941Z,24.95
2018-07-23T09:48:51.446Z,30.43
2018-07-23T09:51:38.890Z,24.30
2018-07-23T09:54:27.956Z,27.10
2018-07-23T09:57:10.593Z,23.98
2018-07-23T09:59:41.491Z,24.67
2018-07-23T10:02:25.712Z,24.10
2018-07-23T10:18:21.366Z,21.27
2018-07-23T10:27:55.807Z,21.68
2018-07-23T10:30:50.682Z,22.70
2018-07-23T10:33:51.637Z,18.52
2018-07-23T10:36:43.564Z,19.17
2018-07-23T10:39:26.151Z,18.98
2018-07-23T10:45:21.721Z,20.08
2018-07-23T10:48:17.241Z,18.20
2018-07-23T10:54:09.882Z,19.90
2018-07-23T10:56:54.851Z,18.00
2018-07-23T10:59:43.958Z,15.98
2018-07-23T11:02:37.213Z,15.80
2018-07-23T11:05:32.194Z,17.05
2018-07-23T11:08:23.312Z,17.27
2018-07-23T11:11:03.819Z,16.57
2018-07-23T11:13:57.922Z,15.05
2018-07-23T11:16:35.749Z,15.53
2018-07-23T11:22:10.189Z,15.80
2018-07-23T11:24:52.783Z,15.78
2018-07-23T11:27:31.494Z,16.05
2018-07-23T11:30:04.899Z,18.00
2018-07-23T11:33:00.374Z,16.50
2018-07-23T11:35:50.544Z,15.23
2018-07-23T11:41:34.146Z,13.55
2018-07-23T11:44:22.676Z,14.70
2018-07-23T11:47:07.315Z,13.75
2018-07-23T11:50:04.221Z,14.83
2018-07-23T11:52:50.041Z,14.55
2018-07-23T11:55:33.262Z,14.13
2018-07-23T11:58:21.972Z,13.75
2018-07-23T12:07:52.939Z,15.30
2018-07-23T12:10:50.628Z,15.30
2018-07-23T12:13:49.501Z,15.43
2018-07-23T12:17:38.346Z,14.85
2018-07-23T12:21:02.934Z,15.18
2018-07-23T12:30:16.902Z,14.03
2018-07-23T12:33:13.377Z,16.10
2018-07-23T12:35:59.936Z,15.03
2018-07-23T12:38:43.984Z,19.10
2018-07-23T12:42:47.214Z,15.00
2018-07-23T12:46:00.746Z,17.27
2018-07-23T12:52:07.346Z,17.57
2018-07-23T12:58:16.717Z,15.83
2018-07-23T13:01:02.965Z,15.30
2018-07-23T13:03:50.778Z,17.35
2018-07-23T13:06:25.964Z,20.30
2018-07-23T13:09:12.761Z,15.53
2018-07-23T13:11:57.725Z,15.13
2018-07-23T13:14:44.740Z,14.13
2018-07-23T13:17:26.142Z,17.48
2018-07-23T13:20:13.900Z,16.77
2018-07-23T13:22:47.178Z,16.30
2018-07-23T13:25:28.857Z,15.30
2018-07-23T13:28:03.177Z,14.38
2018-07-23T13:30:48.976Z,15.05
2018-07-23T13:33:22.796Z,16.32
2018-07-23T13:36:10.549Z,16.33
2018-07-23T13:39:03.129Z,14.65
2018-07-23T13:41:56.960Z,15.90
2018-07-23T13:44:54.160Z,18.83
2018-07-23T13:47:48.589Z,16.10
2018-07-23T13:50:36.953Z,17.27
2018-07-23T13:56:04.806Z,17.90
2018-07-23T13:58:41.149Z,15.90
2018-07-23T14:01:21.839Z,16.13
2018-07-23T14:04:00.923Z,15.70
2018-07-23T14:06:39.300Z,16.87
2018-07-23T14:09:24.633Z,16.30
2018-07-23T14:11:55.681Z,16.60
2018-07-23T14:14:41.500Z,17.17
2018-07-23T14:17:51.687Z,19.30
2018-07-23T14:23:37.397Z,16.30
2018-07-23T14:26:18.065Z,16.90
2018-07-23T14:29:04.397Z,16.85
2018-07-23T14:34:30.774Z,17.25
2018-07-23T14:37:05.531Z,14.65
2018-07-23T14:39:41.256Z,17.17
2018-07-23T14:42:17.192Z,16.35
2018-07-23T14:44:50.400Z,17.13
2018-07-23T14:47:29.666Z,17.55
2018-07-23T14:50:29.149Z,17.82
2018-07-23T14:53:03.816Z,18.25
2018-07-23T14:55:37.548Z,16.17
2018-07-23T14:58:22.176Z,17.93
2018-07-23T15:00:57.233Z,15.68
2018-07-23T15:03:32.983Z,16.33
2018-07-23T15:06:25.163Z,16.57
2018-07-23T15:09:03.003Z,15.40
2018-07-23T15:15:25.985Z,14.18
2018-07-23T15:18:07.652Z,14.43
2018-07-23T15:21:00.218Z,16.95
2018-07-23T15:24:08.460Z,16.45
2018-07-23T15:26:59.535Z,15.13
2018-07-23T15:33:03.007Z,15.87
2018-07-23T15:55:56.951Z,14.13
2018-07-23T15:59:14.397Z,13.90
2018-07-23T16:02:12.726Z,14.57
2018-07-23T16:05:11.936Z,14.23
2018-07-23T16:08:01.460Z,15.63
2018-07-23T16:17:54.398Z,14.23
2018-07-23T16:20:49.893Z,15.17
2018-07-23T16:39:19.106Z,13.03
2018-07-23T16:41:56.780Z,13.43
2018-07-23T16:44:33.434Z,13.00
2018-07-23T16:47:24.584Z,12.58
2018-07-23T16:50:06.661Z,13.13
2018-07-23T16:55:46.527Z,13.40
2018-07-23T16:58:43.887Z,14.13
2018-07-23T17:01:29.262Z,12.45
2018-07-23T17:09:47.357Z,14.20
2018-07-23T17:12:25.414Z,15.83
2018-07-23T17:14:58.383Z,13.60
2018-07-23T17:17:28.962Z,13.95
2018-07-23T17:20:05.392Z,13.13
2018-07-23T17:22:36.186Z,13.43
2018-07-23T17:25:07.435Z,12.33
2018-07-23T17:27:37.949Z,13.17
2018-07-23T17:30:11.369Z,13.40
2018-07-23T17:32:49.810Z,14.10
2018-07-23T17:35:28.112Z,13.30
2018-07-23T17:38:07.074Z,13.40
2018-07-23T17:40:45.560Z,13.17
2018-07-23T17:43:21.865Z,15.10
2018-07-23T17:45:59.050Z,12.90
2018-07-23T17:48:34.869Z,13.38
2018-07-23T17:51:12.989Z,12.77
2018-07-23T17:53:47.257Z,14.85
2018-07-23T17:56:34.526Z,15.30
2018-07-23T17:59:18.363Z,15.40
2018-07-23T18:02:12.748Z,12.37
2018-07-23T18:05:03.375Z,13.00
2018-07-23T18:08:01.959Z,14.55
2018-07-23T18:10:55.918Z,12.07
2018-07-23T18:13:43.949Z,13.43
2018-07-23T18:16:36.652Z,14.13
2018-07-23T18:25:53.608Z,13.60
2018-07-23T18:29:23.387Z,15.13
2018-07-23T18:32:09.974Z,11.85
2018-07-23T18:35:03.479Z,12.82
2018-07-23T18:38:18.231Z,14.70
2018-07-23T18:50:22.728Z,12.55
2018-07-23T18:53:30.955Z,13.10
2018-07-23T18:59:17.776Z,14.03
2018-07-23T19:02:11.889Z,14.25
2018-07-23T19:04:59.806Z,15.45
2018-07-23T19:14:04.096Z,20.80
2018-07-23T19:17:09.673Z,29.85
2018-07-23T19:20:08.813Z,59.27
2018-07-23T19:22:58.163Z,86.08
2018-07-23T19:25:56.466Z,129.80
2018-07-23T19:31:54.284Z,122.78
2018-07-23T19:34:48.514Z,76.33
2018-07-23T19:40:57.195Z,47.70
2018-07-23T19:43:45.469Z,52.23
2018-07-23T19:46:40.759Z,50.65
2018-07-23T19:50:01.226Z,38.30
2018-07-23T19:53:09.419Z,34.48
2018-07-23T19:56:00.775Z,25.10
2018-07-23T19:59:05.504Z,26.15
2018-07-23T20:04:13.521Z,24.65
2018-07-23T20:10:24.112Z,25.60
2018-07-23T20:13:24.244Z,23.40
2018-07-23T20:16:10.298Z,25.70
2018-07-23T20:22:49.746Z,23.22
2018-07-23T20:26:13.719Z,20.43
2018-07-23T20:29:28.700Z,20.85
2018-07-23T20:35:29.293Z,23.77
2018-07-23T20:38:27.469Z,19.65
2018-07-23T20:41:36.173Z,22.50
2018-07-23T20:44:55.303Z,23.27
2018-07-23T20:50:50.991Z,20.97
2018-07-23T21:14:17.915Z,19.42
2018-07-23T21:17:20.142Z,19.82
2018-07-23T21:20:44.805Z,19.95
2018-07-23T21:39:06.195Z,20.10
2018-07-23T21:45:32.036Z,20.82
2018-07-23T21:48:32.761Z,22.73
2018-07-23T21:51:25.440Z,23.22
2018-07-23T21:54:26.130Z,25.20
2018-07-23T21:57:30.708Z,22.05
2018-07-23T22:00:34.494Z,23.30
2018-07-23T22:06:34.291Z,23.80
2018-07-23T22:09:32.797Z,21.97
2018-07-23T22:12:37.856Z,22.00
2018-07-23T22:18:35.123Z,22.80
2018-07-23T22:21:23.692Z,22.73
2018-07-23T22:24:13.425Z,23.70
2018-07-23T22:27:02.184Z,22.07
2018-07-23T22:38:38.385Z,23.10
2018-07-23T22:41:39.562Z,21.37
2018-07-23T22:44:37.403Z,23.57
2018-07-23T22:47:44.482Z,23.95
2018-07-23T22:50:52.963Z,20.95
2018-07-23T22:56:41.988Z,22.95
2018-07-23T22:59:33.091Z,22.80
2018-07-23T23:02:28.977Z,22.52
2018-07-23T23:05:19.891Z,22.93
2018-07-23T23:11:44.836Z,21.30
2018-07-23T23:14:32.695Z,23.85
2018-07-23T23:20:16.960Z,24.00
2018-07-23T23:23:08.289Z,22.15
2018-07-23T23:26:01.903Z,24.23
2018-07-23T23:35:01.373Z,23.47
2018-07-23T23:37:54.407Z,24.30
2018-07-23T23:44:02.582Z,22.85
2018-07-23T23:50:08.418Z,23.73
2018-07-23T23:53:06.353Z,24.07
2018-07-23T23:56:01.468Z,24.25
2018-07-23T23:59:02.373Z,24.85
